Create Tblcommutelog Verified Points Advance Search
| # | Trip ID | Id Commuter | Trip Date | Trip Num | Current Lat | Current Lng | Delta Distance | Current Time | Activity | Activity Confidence | Current Speed | |
|---|---|---|---|---|---|---|---|---|---|---|---|---|
| 72781 | 251009_772512_16639788_1549 | 772512 | (not set) | (not set) | 39.259211380224 | -76.682289037184 | 25.9692 | 2025-10-09 16:31:03 | unknown | 100 | 8.9541963575241 | |
| 72782 | 251009_772512_16639788_1549 | 772512 | (not set) | (not set) | 39.259211380224 | -76.682289037184 | 25.9692 | 2025-10-09 16:31:03 | unknown | 100 | 8.9541963575241 | |
| 72783 | 251009_777261_16644819_1625 | 777261 | (not set) | (not set) | 38.994065195093 | -76.92269280972 | 0.9832 | 2025-10-09 16:31:03 | on_bicycle | 100 | 2.5615349539997 | |
| 72784 | 251009_767309_16652068_1622 | 767309 | (not set) | (not set) | 38.90016819626 | -77.041832728488 | 0.5262 | 2025-10-09 16:31:05 | on_foot | 100 | 0.82702262912729 | |
| 72785 | 251009_767309_16652068_1622 | 767309 | (not set) | (not set) | 38.90016819626 | -77.041832728488 | 0.5262 | 2025-10-09 16:31:05 | on_foot | 100 | 0.82702262912729 | |
| 72786 | 251009_606167_16445164_1603 | 606167 | (not set) | (not set) | 38.777035616712 | -77.199401305253 | 13.0774 | 2025-10-09 16:31:05 | unknown | 100 | 9.2313606980965 | |
| 72787 | 251009_756848_16623265_1547 | 756848 | (not set) | (not set) | 39.046372939359 | -77.260471634887 | 13.1441 | 2025-10-09 16:31:07 | in_vehicle | 100 | 6.0484411741039 | |
| 72788 | 251009_756848_16623265_1547 | 756848 | (not set) | (not set) | 39.046372939359 | -77.260471634887 | 13.1441 | 2025-10-09 16:31:07 | in_vehicle | 100 | 6.0484411741039 | |
| 72789 | 251009_788297_16656891_1616 | 788297 | (not set) | (not set) | 38.936764333855 | -77.059201371843 | 0.9433 | 2025-10-09 16:31:09 | in_vehicle | 100 | -0.44703925898772 | |
| 72790 | 251009_775454_16642917_1613 | 775454 | (not set) | (not set) | 39.101358136335 | -77.154650023794 | 3.6891 | 2025-10-09 16:31:10 | in_vehicle | 100 | 14.305256287607 | |
| 72791 | 251009_770872_16638017_1605 | 770872 | (not set) | (not set) | 39.2662972 | -76.6663053 | 3.7833 | 2025-10-09 16:31:11 | in_vehicle | 100 | 8.8558477205468 | |
| 72792 | 251009_789037_0_1600 | 789037 | (not set) | (not set) | 38.947398623866 | -76.642763676061 | 13.2963 | 2025-10-09 16:31:13 | in_vehicle | 100 | 7.7382495730775 | |
| 72793 | 251009_779784_16651737_1603 | 779784 | (not set) | (not set) | 39.140312962212 | -77.212419518951 | 18.3955 | 2025-10-09 16:31:13 | in_vehicle | 100 | 15.042871064937 | |
| 72794 | 251009_786026_16654284_1606 | 786026 | (not set) | (not set) | 38.972544256244 | -76.933961702755 | 4.1677 | 2025-10-09 16:31:15 | on_bicycle | 100 | 2.0206174506245 | |
| 72795 | 251009_765254_16632172_1631 | 765254 | (not set) | (not set) | 39.393729307942 | -76.606747791216 | 0 | 2025-10-09 16:31:16 | still | 33 | -0.44703925898772 | |
| 72796 | 251009_765254_16632172_1631 | 765254 | (not set) | (not set) | 39.393729307942 | -76.606747791216 | 0 | 2025-10-09 16:31:16 | still | 33 | -0.44703925898772 | |
| 72797 | 251009_772512_16639788_1549 | 772512 | (not set) | (not set) | 39.260746734271 | -76.679984181945 | 26.132 | 2025-10-09 16:31:17 | unknown | 100 | 8.0064731284701 | |
| 72798 | 251009_772512_16639788_1549 | 772512 | (not set) | (not set) | 39.260746734271 | -76.679984181945 | 26.132 | 2025-10-09 16:31:17 | unknown | 100 | 8.0064731284701 | |
| 72799 | 251009_769852_16636925_1621 | 769852 | (not set) | (not set) | 38.939938206579 | -77.061625428931 | 0.5641 | 2025-10-09 16:31:17 | in_vehicle | 100 | -0.44703925898772 | |
| 72800 | 251009_769852_16636925_1621 | 769852 | (not set) | (not set) | 38.939938206579 | -77.061625428931 | 0.5641 | 2025-10-09 16:31:17 | in_vehicle | 100 | -0.44703925898772 |